WAOO/BDJ METAR and TAF weather

Enter ICAO airport designator
Station Type Date Time Source
WAOO METAR 2020/09/18 17:00 UTC NOAA

WAOO 181700Z AUTO 07006KT 9999 OVC150 27/25 Q1008


Station Type Date Time Source
WAOO Decoded METAR 2020/09/18 17:00 UTC NOAA

Station name not available
Sep 18, 2020 - 01:00 PM EDT / 2020.09.18 1700 UTC
Wind: from the ENE (070 degrees) at 7 MPH (6 KT):0
Visibility: greater than 7 mile(s):0
Sky conditions: overcast
Temperature: 80 F (27 C)
Dew Point: 77 F (25 C)
Relative Humidity: 88%
Pressure (altimeter): 29.77 in. Hg (1008 hPa)
ob: WAOO 181700Z AUTO 07006KT 9999 OVC150 27/25 Q1008
cycle: 17

Station Type Date Time Source
WAOO TAF 2020/09/18 18:30 UTC NOAA

TAF WAOO 181700Z 1818/1918 11006KT 9999 SCT018
TEMPO 1905/1909 22008KT 6000 RA

Example: see airport list